< < Back
Terminal Aerodrome Forecast


Current Version              Previous Versions:   1  2  3  4  5  6  7  8  9  

Terminal Aerodrome Forecast

681
FTUS42 KJAX 272300
TAFGNV
TAF
KGNV 272340Z 2800/2824 08006KT P6SM FEW060
     FM280200 VRB03KT P6SM SKC
     FM281500 16006KT P6SM SCT050=

Latest METAR

609
SAUS70 KWBC 280500 RRH
MTRGNV
METAR KGNV 280453Z AUTO 00000KT 10SM CLR 21/19 A3002 RMK AO2 SLP164
T02060189 403280194


USA.gov is the U.S. government's official web portal to all federal, state and local government web resources and services.